createdAt,value
2022-08-16T04:02:47.412Z,19.00
2022-08-16T04:05:18.559Z,19.00
2022-08-16T04:07:51.129Z,19.00
2022-08-16T04:10:37.342Z,19.00
2022-08-16T04:13:20.302Z,19.00
2022-08-16T04:15:59.173Z,19.00
2022-08-16T04:18:32.258Z,19.00
2022-08-16T04:21:00.729Z,19.00
2022-08-16T04:23:28.925Z,19.00
2022-08-16T04:25:58.080Z,19.00
2022-08-16T04:28:53.630Z,18.90
2022-08-16T04:31:18.629Z,19.00
2022-08-16T04:33:50.947Z,19.00
2022-08-16T04:36:20.558Z,19.00
2022-08-16T04:38:50.127Z,19.10
2022-08-16T04:41:20.649Z,19.10
2022-08-16T04:44:01.245Z,19.10
2022-08-16T04:47:00.848Z,19.10
2022-08-16T04:49:18.964Z,19.10
2022-08-16T04:51:53.918Z,19.20
2022-08-16T04:54:23.594Z,19.20
2022-08-16T04:56:52.585Z,19.30
2022-08-16T04:59:22.143Z,19.40
2022-08-16T05:01:58.504Z,19.30
2022-08-16T05:04:30.050Z,19.40
2022-08-16T05:06:58.803Z,19.50
2022-08-16T05:09:28.472Z,19.50
2022-08-16T05:11:57.881Z,19.50
2022-08-16T05:14:46.487Z,19.50
2022-08-16T05:17:14.241Z,19.60
2022-08-16T05:19:46.800Z,19.70
2022-08-16T05:22:28.312Z,19.80
2022-08-16T05:24:56.747Z,19.90
2022-08-16T05:27:25.416Z,20.00
2022-08-16T05:30:00.729Z,20.10
2022-08-16T05:32:32.427Z,20.20
2022-08-16T05:35:11.108Z,20.30
2022-08-16T05:37:41.680Z,20.40
2022-08-16T05:40:13.454Z,20.40
2022-08-16T05:42:46.136Z,20.50
2022-08-16T05:45:22.183Z,20.60
2022-08-16T05:47:59.947Z,20.60
2022-08-16T05:50:34.474Z,20.60
2022-08-16T05:53:02.884Z,20.70
2022-08-16T05:55:31.025Z,20.80
2022-08-16T05:58:03.907Z,20.90
2022-08-16T06:00:33.345Z,20.80
2022-08-16T06:03:01.415Z,20.80
2022-08-16T06:05:30.848Z,20.80
2022-08-16T06:08:04.827Z,20.90
2022-08-16T06:10:33.515Z,21.00
2022-08-16T06:13:01.894Z,21.20
2022-08-16T06:15:30.715Z,21.30
2022-08-16T06:17:59.251Z,21.40
2022-08-16T06:20:35.488Z,21.50
2022-08-16T06:23:16.831Z,21.40
2022-08-16T06:25:53.202Z,21.50
2022-08-16T06:28:34.874Z,21.60
2022-08-16T06:31:05.636Z,21.70
2022-08-16T06:33:41.881Z,21.90
2022-08-16T06:36:14.131Z,22.00
2022-08-16T06:38:52.291Z,22.10
2022-08-16T06:41:27.484Z,22.10
2022-08-16T06:43:56.491Z,22.20
2022-08-16T06:46:31.936Z,22.20
2022-08-16T06:49:00.728Z,22.20
2022-08-16T06:51:46.468Z,22.30
2022-08-16T06:54:18.175Z,22.30
2022-08-16T06:56:46.560Z,22.40
2022-08-16T06:59:15.050Z,22.50
2022-08-16T07:01:54.351Z,22.60
2022-08-16T07:04:33.379Z,22.60
2022-08-16T07:07:09.580Z,22.70
2022-08-16T07:09:38.854Z,22.70
2022-08-16T07:12:07.941Z,22.60
2022-08-16T07:14:36.176Z,22.70
2022-08-16T07:17:08.374Z,22.80
2022-08-16T07:20:04.036Z,23.00
2022-08-16T07:22:37.247Z,23.10
2022-08-16T07:25:10.614Z,23.20
2022-08-16T07:27:41.876Z,23.30
2022-08-16T07:30:45.211Z,23.30
2022-08-16T07:33:05.323Z,23.30
2022-08-16T07:35:35.943Z,23.40
2022-08-16T07:38:07.359Z,23.50
2022-08-16T07:40:59.617Z,23.50
2022-08-16T07:43:28.935Z,23.60
2022-08-16T07:45:59.442Z,23.70
2022-08-16T07:48:30.033Z,23.80
2022-08-16T07:51:00.219Z,23.90
2022-08-16T07:53:34.461Z,24.10
2022-08-16T07:56:12.429Z,24.20
2022-08-16T07:58:43.331Z,24.20
2022-08-16T08:01:14.973Z,24.30
2022-08-16T08:03:48.855Z,24.40
2022-08-16T08:06:19.214Z,24.50
2022-08-16T08:08:50.702Z,24.50
2022-08-16T08:11:23.503Z,24.60
2022-08-16T08:13:54.173Z,24.70
2022-08-16T08:16:30.641Z,24.80
2022-08-16T08:19:02.592Z,24.80
2022-08-16T08:21:59.667Z,24.70
2022-08-16T08:24:31.602Z,24.80
2022-08-16T08:27:00.363Z,24.90
2022-08-16T08:29:37.165Z,25.00
2022-08-16T08:32:48.963Z,25.10
2022-08-16T08:35:03.294Z,25.20
2022-08-16T08:37:51.180Z,25.30
2022-08-16T08:40:26.580Z,25.40
2022-08-16T08:43:00.268Z,25.40
2022-08-16T08:45:48.627Z,25.50
2022-08-16T08:48:33.016Z,25.50
2022-08-16T08:51:04.781Z,25.50
2022-08-16T08:53:33.659Z,25.60
2022-08-16T08:56:23.699Z,25.70
2022-08-16T08:59:00.057Z,25.90
2022-08-16T09:01:36.260Z,26.00
2022-08-16T09:04:06.506Z,26.00
2022-08-16T09:06:36.142Z,26.10
2022-08-16T09:09:16.934Z,26.20
2022-08-16T09:11:53.295Z,26.30
2022-08-16T09:14:23.935Z,26.40
2022-08-16T09:17:03.287Z,26.40
2022-08-16T09:19:33.877Z,26.50
2022-08-16T09:22:03.284Z,26.60
2022-08-16T09:24:51.916Z,26.60
2022-08-16T09:27:23.460Z,26.70
2022-08-16T09:29:59.934Z,26.90
2022-08-16T09:32:30.946Z,26.80
2022-08-16T09:35:01.411Z,26.90
2022-08-16T09:37:36.746Z,26.90
2022-08-16T09:40:32.675Z,27.00
2022-08-16T09:42:59.845Z,27.20
2022-08-16T09:45:30.073Z,27.40
2022-08-16T09:47:59.326Z,27.50
2022-08-16T09:50:37.066Z,27.60
2022-08-16T09:53:15.533Z,27.70
2022-08-16T09:55:49.037Z,27.90
2022-08-16T09:58:40.779Z,28.20
2022-08-16T10:01:11.460Z,28.40
2022-08-16T10:04:01.564Z,28.60
2022-08-16T10:06:33.234Z,28.70
2022-08-16T10:09:06.567Z,29.00
2022-08-16T10:11:54.664Z,29.30
2022-08-16T10:14:33.112Z,29.30
2022-08-16T10:17:06.188Z,29.50
2022-08-16T10:19:35.228Z,29.80
2022-08-16T10:22:05.031Z,30.00
2022-08-16T10:24:34.503Z,30.10
2022-08-16T10:27:25.602Z,30.20
2022-08-16T10:30:00.474Z,30.40
2022-08-16T10:32:32.118Z,30.60
2022-08-16T10:35:03.287Z,30.90
2022-08-16T10:37:35.925Z,31.30
2022-08-16T10:40:14.596Z,31.70
2022-08-16T10:42:55.774Z,32.00
2022-08-16T10:45:25.527Z,32.20
2022-08-16T10:48:02.710Z,32.50
2022-08-16T10:50:33.564Z,32.70
2022-08-16T10:53:07.545Z,32.90
2022-08-16T10:55:40.835Z,33.10
2022-08-16T10:58:17.394Z,33.20
2022-08-16T11:00:47.973Z,33.00
2022-08-16T11:06:07.549Z,33.40
2022-08-16T11:08:45.507Z,33.60
2022-08-16T11:11:19.639Z,33.90
2022-08-16T11:13:58.714Z,34.10
2022-08-16T11:19:18.154Z,34.50
2022-08-16T11:24:43.415Z,35.30
2022-08-16T11:27:19.751Z,35.20
2022-08-16T11:29:52.234Z,35.50
2022-08-16T11:32:29.937Z,36.20
2022-08-16T11:35:16.244Z,36.60
2022-08-16T11:40:46.900Z,37.40
2022-08-16T11:43:26.816Z,37.70
2022-08-16T11:45:57.622Z,38.10
2022-08-16T11:48:33.378Z,38.70
2022-08-16T11:51:02.745Z,39.20
2022-08-16T11:53:35.925Z,39.40
2022-08-16T11:56:06.312Z,39.50
2022-08-16T11:58:35.141Z,39.70
2022-08-16T12:01:03.224Z,40.20
2022-08-16T12:03:35.642Z,40.60
2022-08-16T12:06:25.133Z,41.40
2022-08-16T12:09:02.182Z,42.10
2022-08-16T12:11:31.657Z,43.00
2022-08-16T12:14:00.523Z,43.20
2022-08-16T12:16:31.400Z,43.10
2022-08-16T12:19:07.357Z,43.50
2022-08-16T12:21:58.568Z,44.00
2022-08-16T12:24:29.485Z,44.30
2022-08-16T12:26:58.671Z,44.80
2022-08-16T12:29:29.734Z,45.80
2022-08-16T12:32:01.301Z,46.40
2022-08-16T12:34:52.805Z,46.70
2022-08-16T12:37:24.480Z,46.80
2022-08-16T12:39:54.882Z,46.70
2022-08-16T12:42:24.507Z,47.20
2022-08-16T12:45:03.218Z,47.70
2022-08-16T12:47:48.666Z,48.70
2022-08-16T12:50:18.112Z,49.10
2022-08-16T12:52:52.760Z,49.40
2022-08-16T12:55:23.769Z,49.80
2022-08-16T12:57:58.220Z,49.20
2022-08-16T13:00:33.174Z,48.30
2022-08-16T13:03:04.801Z,46.50
2022-08-16T13:05:45.151Z,44.10
2022-08-16T13:08:30.736Z,41.80
2022-08-16T13:11:02.758Z,40.50
2022-08-16T13:13:34.635Z,39.70
2022-08-16T13:16:15.361Z,39.10
2022-08-16T13:18:52.436Z,38.10
2022-08-16T13:21:23.415Z,37.30
2022-08-16T13:23:55.173Z,37.20
2022-08-16T13:26:26.295Z,38.20
2022-08-16T13:28:55.241Z,40.50
2022-08-16T13:31:24.149Z,42.90
2022-08-16T13:33:58.621Z,44.70
2022-08-16T13:39:17.098Z,48.20
2022-08-16T13:41:54.132Z,48.80
2022-08-16T13:44:22.652Z,48.70
2022-08-16T13:47:10.730Z,48.90
2022-08-16T13:49:43.312Z,50.10
2022-08-16T13:52:13.940Z,51.10
2022-08-16T13:54:42.184Z,51.60
2022-08-16T13:57:11.941Z,51.80
2022-08-16T13:59:40.933Z,51.40
2022-08-16T14:02:11.402Z,51.60
2022-08-16T14:04:42.249Z,50.50
2022-08-16T14:07:24.329Z,50.20
2022-08-16T14:09:55.324Z,50.50
2022-08-16T14:12:27.418Z,51.70
2022-08-16T14:14:57.961Z,51.20
2022-08-16T14:17:29.243Z,48.90
2022-08-16T14:19:59.951Z,47.10
2022-08-16T14:22:35.910Z,44.10
2022-08-16T14:25:16.317Z,41.70
2022-08-16T14:27:45.123Z,39.50
2022-08-16T14:30:17.710Z,37.90
2022-08-16T14:32:49.813Z,36.70
2022-08-16T14:35:29.394Z,37.60
2022-08-16T14:38:06.645Z,38.70
2022-08-16T14:40:35.452Z,39.00
2022-08-16T14:43:06.910Z,38.80
2022-08-16T14:45:36.848Z,38.30
2022-08-16T14:48:06.160Z,37.80
2022-08-16T14:50:34.845Z,38.70
2022-08-16T14:53:10.532Z,41.00
2022-08-16T14:55:41.170Z,43.40
2022-08-16T14:58:18.833Z,44.60
2022-08-16T15:00:50.738Z,46.00
2022-08-16T15:03:23.245Z,46.80
2022-08-16T15:05:53.792Z,48.40
2022-08-16T15:08:36.541Z,49.20
2022-08-16T15:11:06.119Z,50.20
2022-08-16T15:13:36.437Z,51.00
2022-08-16T15:16:05.386Z,51.80
2022-08-16T15:18:34.220Z,52.40
2022-08-16T15:21:05.304Z,53.20
2022-08-16T15:23:40.307Z,53.90
2022-08-16T15:26:09.271Z,54.30
2022-08-16T15:28:38.869Z,54.50
2022-08-16T15:31:13.195Z,54.30
2022-08-16T15:33:48.577Z,54.20
2022-08-16T15:36:21.887Z,53.90
2022-08-16T15:39:07.045Z,54.20
2022-08-16T15:42:11.019Z,54.50
2022-08-16T15:44:44.610Z,53.40
2022-08-16T15:47:25.923Z,52.50
2022-08-16T15:49:55.914Z,51.10
2022-08-16T15:52:29.558Z,50.20
2022-08-16T15:55:12.980Z,49.40
2022-08-16T15:57:52.211Z,48.30
2022-08-16T16:00:21.514Z,47.20
2022-08-16T16:05:32.256Z,46.30
2022-08-16T16:08:11.737Z,45.60
2022-08-16T16:10:43.381Z,45.40
2022-08-16T16:13:13.850Z,45.80
2022-08-16T16:15:46.425Z,45.90
2022-08-16T16:18:16.457Z,46.00
2022-08-16T16:20:49.158Z,46.00
2022-08-16T16:23:23.442Z,46.10
2022-08-16T16:25:54.915Z,45.70
2022-08-16T16:29:06.457Z,45.60
2022-08-16T16:31:18.977Z,45.80
2022-08-16T16:33:55.773Z,44.50
2022-08-16T16:36:28.799Z,43.50
2022-08-16T16:38:58.497Z,43.20
2022-08-16T16:41:32.230Z,42.80
2022-08-16T16:44:02.673Z,42.70
2022-08-16T16:46:42.792Z,42.50
2022-08-16T16:49:14.634Z,42.70
2022-08-16T16:51:49.814Z,43.00
2022-08-16T16:54:22.307Z,43.00
2022-08-16T16:56:58.594Z,42.80
2022-08-16T16:59:28.129Z,42.60
2022-08-16T17:02:28.217Z,42.20
2022-08-16T17:04:47.421Z,41.50
2022-08-16T17:07:16.115Z,40.20
2022-08-16T17:09:45.707Z,39.20
2022-08-16T17:12:24.410Z,38.40
2022-08-16T17:15:07.378Z,37.60
2022-08-16T17:17:59.693Z,36.70
2022-08-16T17:20:27.398Z,36.10
2022-08-16T17:22:57.665Z,35.50
2022-08-16T17:25:36.621Z,35.00
2022-08-16T17:28:58.348Z,34.60
2022-08-16T17:31:09.541Z,34.20
2022-08-16T17:33:54.864Z,33.60
2022-08-16T17:36:36.011Z,33.30
2022-08-16T17:39:07.542Z,33.40
2022-08-16T17:41:38.285Z,33.60
2022-08-16T17:44:09.492Z,33.80
2022-08-16T17:46:50.569Z,33.80
2022-08-16T17:49:20.941Z,33.60
2022-08-16T17:51:49.504Z,33.20
2022-08-16T17:54:30.253Z,32.90
2022-08-16T17:57:00.553Z,32.70
2022-08-16T17:59:31.730Z,32.40
2022-08-16T18:02:42.631Z,32.00
2022-08-16T18:04:55.496Z,31.70
2022-08-16T18:07:23.866Z,31.30
2022-08-16T18:09:52.409Z,31.00
2022-08-16T18:12:44.803Z,30.70
2022-08-16T18:15:16.616Z,30.40
2022-08-16T18:17:44.939Z,30.10
2022-08-16T18:20:35.200Z,29.90
2022-08-16T18:23:05.311Z,29.60
2022-08-16T18:25:33.976Z,29.30
2022-08-16T18:28:02.750Z,29.10
2022-08-16T18:30:32.334Z,28.90
2022-08-16T18:33:00.428Z,28.80
2022-08-16T18:35:28.806Z,28.60
2022-08-16T18:37:57.336Z,28.40
2022-08-16T18:40:25.789Z,28.30
2022-08-16T18:42:57.435Z,28.20
2022-08-16T18:45:35.058Z,28.00
2022-08-16T18:48:09.057Z,27.90
2022-08-16T18:51:03.890Z,27.70
2022-08-16T18:53:29.168Z,27.60
2022-08-16T18:56:00.908Z,27.40
2022-08-16T18:58:32.972Z,27.30
2022-08-16T19:01:01.524Z,27.20
2022-08-16T19:03:34.130Z,27.10
2022-08-16T19:06:07.728Z,26.90
2022-08-16T19:08:40.814Z,26.80
2022-08-16T19:11:13.719Z,26.70
2022-08-16T19:13:44.120Z,26.60
2022-08-16T19:16:14.277Z,26.50
2022-08-16T19:18:44.678Z,26.40
2022-08-16T19:21:14.739Z,26.30
2022-08-16T19:23:45.055Z,26.20
2022-08-16T19:26:26.033Z,26.10
2022-08-16T19:28:58.929Z,26.00
2022-08-16T19:31:32.604Z,25.90
2022-08-16T19:34:03.889Z,25.80
2022-08-16T19:36:37.476Z,25.70
2022-08-16T19:39:09.591Z,25.70
2022-08-16T19:41:43.345Z,25.60
2022-08-16T19:44:12.349Z,25.50
2022-08-16T19:46:43.390Z,25.50
2022-08-16T19:49:16.457Z,25.40
2022-08-16T19:51:45.185Z,25.30
2022-08-16T19:54:13.296Z,25.30
2022-08-16T19:56:41.494Z,25.20
2022-08-16T19:59:19.346Z,25.10
2022-08-16T20:01:51.599Z,25.10
2022-08-16T20:04:23.222Z,25.00
2022-08-16T20:06:52.499Z,25.00
2022-08-16T20:09:21.589Z,24.90
2022-08-16T20:11:53.573Z,24.90
2022-08-16T20:14:25.445Z,24.80
2022-08-16T20:16:59.624Z,24.70
2022-08-16T20:19:40.000Z,24.70
2022-08-16T20:22:49.882Z,24.60
2022-08-16T20:25:17.228Z,24.60
2022-08-16T20:27:45.359Z,24.50
2022-08-16T20:30:16.181Z,24.50
2022-08-16T20:32:46.165Z,24.40
2022-08-16T20:35:19.707Z,24.40
2022-08-16T20:37:48.037Z,24.30
2022-08-16T20:40:29.666Z,24.30
2022-08-16T20:43:07.814Z,24.20
2022-08-16T20:45:36.612Z,24.20
2022-08-16T20:48:06.077Z,24.20
2022-08-16T20:50:36.773Z,24.10
2022-08-16T20:53:05.661Z,24.10
2022-08-16T20:55:36.438Z,24.10
2022-08-16T20:58:05.316Z,24.10
